LRBS Weather Reports


Display with metric or nautical units.
time (UTC)temp
F
wind
direction
speed
MPH
gust
MPH
rain 1hr
in
rain 24hr
in
rain mn
in
humidity
%
barometer
mb
20190320090827 55 60 16.0 0.0 0.00 0.00 0.00 51 1027.0
20190320083826 54 60 20.0 0.0 0.00 0.00 0.00 54 1027.0
20190320080827 54 60 14.0 0.0 0.00 0.00 0.00 58 1027.0
20190320073826 52 60 16.0 0.0 0.00 0.00 0.00 62 1027.0
20190320070826 50 60 16.0 0.0 0.00 0.00 0.00 66 1026.0
20190320063827 48 70 10.0 0.0 0.00 0.00 0.00 71 1026.0
20190320060827 46 70 10.0 0.0 0.00 0.00 0.00 76 1026.0
20190320053828 45 70 7.0 0.0 0.00 0.00 0.00 81 1026.0
20190320050827 41 60 6.0 0.0 0.00 0.00 0.00 87 1025.0
20190320043831 41 60 6.0 0.0 0.00 0.00 0.00 87 1025.0
20190320040830 43 60 6.0 0.0 0.00 0.00 0.00 81 1024.0
20190320033832 43 70 12.0 0.0 0.00 0.00 0.00 87 1024.0
20190320030831 43 70 9.0 0.0 0.00 0.00 0.00 81 1024.0
20190320023828 43 70 6.0 0.0 0.00 0.00 0.00 81 1024.0
20190320020827 45 70 8.0 0.0 0.00 0.00 0.00 81 1024.0
20190320013827 45 60 6.0 0.0 0.00 0.00 0.00 76 1023.0
20190320010828 45 60 9.0 0.0 0.00 0.00 0.00 76 1023.0
20190320003830 45 70 12.0 0.0 0.00 0.00 0.00 76 1023.0
20190320000827 46 60 12.0 0.0 0.00 0.00 0.00 71 1023.0
20190319233829 48 50 10.0 0.0 0.00 0.00 0.00 66 1023.0
20190319230827 48 50 14.0 0.0 0.00 0.00 0.00 66 1022.0
20190319223827 48 60 16.0 0.0 0.00 0.00 0.00 66 1022.0
20190319220829 50 50 15.0 0.0 0.00 0.00 0.00 62 1022.0
20190319213827 50 50 13.0 0.0 0.00 0.00 0.00 62 1022.0
20190319210826 50 60 14.0 0.0 0.00 0.00 0.00 62 1022.0
20190319203826 52 60 16.0 0.0 0.00 0.00 0.00 58 1021.0
20190319200846 52 60 17.0 0.0 0.00 0.00 0.00 58 1021.0
20190319193828 54 60 14.0 0.0 0.00 0.00 0.00 54 1021.0
20190319190827 54 50 14.0 0.0 0.00 0.00 0.00 54 1020.0
20190319183828 55 40 15.0 0.0 0.00 0.00 0.00 54 1020.0
20190319180828 57 40 14.0 0.0 0.00 0.00 0.00 51 1020.0
20190319173830 57 40 14.0 0.0 0.00 0.00 0.00 51 1019.0
20190319170828 59 30 15.0 0.0 0.00 0.00 0.00 48 1019.0
20190319163828 59 40 12.0 0.0 0.00 0.00 0.00 48 1018.0
20190319160830 61 40 10.0 0.0 0.00 0.00 0.00 45 1018.0
20190319153830 61 50 14.0 0.0 0.00 0.00 0.00 45 1017.0
20190319150827 63 40 13.0 0.0 0.00 0.00 0.00 45 1017.0
20190319143827 64 50 14.0 0.0 0.00 0.00 0.00 42 1017.0
20190319140827 63 50 14.0 0.0 0.00 0.00 0.00 45 1017.0
20190319133827 63 60 15.0 0.0 0.00 0.00 0.00 45 1017.0
20190319130828 63 50 16.0 0.0 0.00 0.00 0.00 42 1017.0
20190319123828 63 60 17.0 0.0 0.00 0.00 0.00 42 1017.0
20190319120828 63 50 15.0 27.0 0.00 0.00 0.00 42 1017.0
20190319113828 61 50 17.0 0.0 0.00 0.00 0.00 45 1017.0
20190319110828 61 50 16.0 0.0 0.00 0.00 0.00 45 1017.0
20190319103828 61 70 20.0 0.0 0.00 0.00 0.00 45 1017.0
20190319100828 57 60 20.0 0.0 0.00 0.00 0.00 51 1018.0
20190319093828 57 60 21.0 0.0 0.00 0.00 0.00 51 1017.0